createdAt,value
2019-02-04T00:00:48.376Z,18.13
2019-02-04T00:03:20.504Z,18.00
2019-02-04T00:05:51.707Z,18.93
2019-02-04T00:08:20.645Z,17.47
2019-02-04T00:10:49.459Z,17.00
2019-02-04T00:13:18.308Z,17.67
2019-02-04T00:15:47.301Z,16.47
2019-02-04T00:18:16.124Z,15.93
2019-02-04T00:20:44.996Z,16.40
2019-02-04T00:23:15.113Z,16.37
2019-02-04T00:25:43.979Z,16.83
2019-02-04T00:28:12.904Z,17.97
2019-02-04T00:30:41.793Z,18.23
2019-02-04T00:33:10.613Z,17.23
2019-02-04T00:35:39.671Z,18.60
2019-02-04T00:38:08.572Z,19.47
2019-02-04T00:40:37.391Z,17.70
2019-02-04T00:43:06.274Z,23.57
2019-02-04T00:45:35.132Z,18.80
2019-02-04T00:48:04.664Z,17.00
2019-02-04T00:50:33.497Z,18.00
2019-02-04T00:53:02.421Z,16.57
2019-02-04T00:55:31.311Z,18.30
2019-02-04T00:58:00.137Z,20.97
2019-02-04T01:00:31.245Z,21.57
2019-02-04T01:03:00.485Z,22.23
2019-02-04T01:05:29.289Z,19.37
2019-02-04T01:07:58.224Z,20.27
2019-02-04T01:10:31.512Z,20.70
2019-02-04T01:13:00.417Z,21.17
2019-02-04T01:15:29.352Z,24.18
2019-02-04T01:17:58.164Z,23.20
2019-02-04T01:20:29.941Z,22.90
2019-02-04T01:22:59.225Z,21.87
2019-02-04T01:25:28.679Z,23.23
2019-02-04T01:27:57.537Z,23.10
2019-02-04T01:30:26.928Z,22.50
2019-02-04T01:32:56.690Z,22.10
2019-02-04T01:35:26.020Z,22.77
2019-02-04T01:37:54.931Z,22.10
2019-02-04T01:40:26.348Z,21.53
2019-02-04T01:42:56.147Z,21.93
2019-02-04T01:45:25.759Z,20.93
2019-02-04T01:47:55.304Z,21.47
2019-02-04T01:50:24.621Z,23.20
2019-02-04T01:52:53.431Z,21.73
2019-02-04T01:55:22.406Z,23.47
2019-02-04T01:57:55.169Z,20.93
2019-02-04T02:00:27.131Z,19.27
2019-02-04T02:02:58.868Z,19.07
2019-02-04T02:05:27.739Z,18.20
2019-02-04T02:07:56.706Z,17.77
2019-02-04T02:10:28.944Z,18.50
2019-02-04T02:12:58.089Z,18.73
2019-02-04T02:15:26.942Z,19.13
2019-02-04T02:17:55.868Z,17.47
2019-02-04T02:20:27.764Z,17.07
2019-02-04T02:22:56.688Z,18.13
2019-02-04T02:25:25.615Z,18.30
2019-02-04T02:27:54.434Z,19.13
2019-02-04T02:30:26.651Z,20.43
2019-02-04T02:32:55.465Z,19.00
2019-02-04T02:35:24.320Z,19.00
2019-02-04T02:37:53.163Z,18.30
2019-02-04T02:40:24.972Z,16.73
2019-02-04T02:42:53.868Z,17.07
2019-02-04T02:45:22.631Z,18.77
2019-02-04T02:47:51.534Z,16.13
2019-02-04T02:50:20.490Z,17.67
2019-02-04T02:52:49.407Z,17.33
2019-02-04T02:55:19.632Z,16.53
2019-02-04T02:57:48.522Z,16.57
2019-02-04T03:00:20.237Z,21.95
2019-02-04T03:02:49.147Z,15.63
2019-02-04T03:05:18.310Z,15.83
2019-02-04T03:07:48.800Z,15.80
2019-02-04T03:10:23.483Z,15.40
2019-02-04T03:12:52.345Z,16.07
2019-02-04T03:15:21.149Z,16.27
2019-02-04T03:17:52.381Z,16.30
2019-02-04T03:20:20.535Z,16.57
2019-02-04T03:22:50.844Z,15.83
2019-02-04T03:25:19.725Z,16.37
2019-02-04T03:27:48.575Z,15.80
2019-02-04T03:30:20.381Z,17.50
2019-02-04T03:32:49.260Z,17.03
2019-02-04T03:35:18.202Z,17.30
2019-02-04T03:37:47.099Z,16.30
2019-02-04T03:40:25.339Z,17.20
2019-02-04T03:42:54.279Z,16.80
2019-02-04T03:45:27.089Z,16.73
2019-02-04T03:48:04.205Z,17.93
2019-02-04T03:50:26.568Z,18.63
2019-02-04T03:52:55.597Z,18.93
2019-02-04T03:55:24.515Z,17.47
2019-02-04T03:57:53.350Z,18.60
2019-02-04T04:00:24.955Z,18.57
2019-02-04T04:02:53.899Z,18.87
2019-02-04T04:05:22.843Z,18.17
2019-02-04T04:07:53.607Z,21.25
2019-02-04T04:10:22.223Z,18.00
2019-02-04T04:12:51.105Z,18.33
2019-02-04T04:15:28.353Z,17.57
2019-02-04T04:17:57.224Z,17.20
2019-02-04T04:20:26.864Z,16.57
2019-02-04T04:22:55.816Z,18.30
2019-02-04T04:25:24.689Z,19.57
2019-02-04T04:27:53.512Z,19.57
2019-02-04T04:30:26.198Z,21.30
2019-02-04T04:32:55.903Z,27.32
2019-02-04T04:35:24.840Z,19.60
2019-02-04T04:37:53.836Z,17.83
2019-02-04T04:40:23.156Z,17.80
2019-02-04T04:42:52.523Z,16.17
2019-02-04T04:45:26.391Z,17.80
2019-02-04T04:47:55.404Z,16.57
2019-02-04T04:50:24.275Z,15.77
2019-02-04T04:52:53.117Z,16.70
2019-02-04T04:55:26.961Z,15.93
2019-02-04T04:58:00.598Z,14.47
2019-02-04T05:00:31.286Z,15.90
2019-02-04T05:03:00.742Z,15.73
2019-02-04T05:05:29.852Z,17.30
2019-02-04T05:08:00.207Z,17.23
2019-02-04T05:10:30.442Z,16.90
2019-02-04T05:13:00.687Z,17.77
2019-02-04T05:15:31.091Z,17.23
2019-02-04T05:18:06.843Z,17.63
2019-02-04T05:20:35.935Z,17.50
2019-02-04T05:23:04.995Z,17.17
2019-02-04T05:25:35.701Z,17.77
2019-02-04T05:28:16.472Z,18.57
2019-02-04T05:30:46.117Z,19.53
2019-02-04T05:33:16.945Z,20.60
2019-02-04T05:35:47.705Z,21.00
2019-02-04T05:38:25.593Z,20.40
2019-02-04T05:40:54.466Z,19.50
2019-02-04T05:43:23.509Z,19.00
2019-02-04T05:45:52.710Z,23.75
2019-02-04T05:51:19.889Z,18.67
2019-02-04T05:53:48.765Z,17.90
2019-02-04T05:56:18.623Z,19.83
2019-02-04T05:58:49.312Z,18.10
2019-02-04T06:01:18.193Z,17.40
2019-02-04T06:03:48.621Z,17.70
2019-02-04T06:06:17.679Z,18.03
2019-02-04T06:08:46.649Z,18.20
2019-02-04T06:11:15.510Z,18.40
2019-02-04T06:13:44.633Z,20.33
2019-02-04T06:16:15.136Z,21.63
2019-02-04T06:18:45.512Z,20.23
2019-02-04T06:21:15.739Z,20.07
2019-02-04T06:23:46.116Z,20.70
2019-02-04T06:26:17.435Z,20.77
2019-02-04T06:28:51.905Z,22.67
2019-02-04T06:31:20.836Z,19.87
2019-02-04T06:33:52.201Z,19.63
2019-02-04T06:36:21.171Z,19.33
2019-02-04T06:38:50.717Z,19.93
2019-02-04T06:41:19.564Z,19.43
2019-02-04T06:43:50.859Z,21.83
2019-02-04T06:46:53.277Z,20.57
2019-02-04T06:49:22.122Z,21.97
2019-02-04T06:51:52.515Z,20.07
2019-02-04T06:54:23.102Z,19.73
2019-02-04T06:56:53.496Z,20.83
2019-02-04T06:59:40.796Z,26.40
2019-02-04T07:02:11.159Z,26.67
2019-02-04T07:04:40.066Z,20.77
2019-02-04T07:07:15.031Z,20.20
2019-02-04T07:09:47.527Z,22.60
2019-02-04T07:12:16.650Z,20.87
2019-02-04T07:14:48.482Z,19.97
2019-02-04T07:17:18.832Z,18.60
2019-02-04T07:19:47.659Z,18.47
2019-02-04T07:22:19.260Z,25.48
2019-02-04T07:24:55.517Z,22.87
2019-02-04T07:27:25.965Z,22.07
2019-02-04T07:29:54.809Z,21.03
2019-02-04T07:32:26.536Z,19.93
2019-02-04T07:34:55.377Z,20.30
2019-02-04T07:37:24.229Z,19.20
2019-02-04T07:39:54.102Z,19.77
2019-02-04T07:42:22.994Z,19.47
2019-02-04T07:44:59.595Z,18.20
2019-02-04T07:47:29.839Z,18.67
2019-02-04T07:50:01.073Z,19.03
2019-02-04T07:52:32.455Z,19.50
2019-02-04T07:55:01.309Z,20.83
2019-02-04T07:57:33.509Z,21.30
2019-02-04T08:00:02.516Z,19.77
2019-02-04T08:02:31.584Z,19.07
2019-02-04T08:05:02.431Z,19.10
2019-02-04T08:07:33.097Z,19.07
2019-02-04T08:10:06.037Z,19.80
2019-02-04T08:12:37.608Z,18.97
2019-02-04T08:15:45.346Z,18.87
2019-02-04T08:18:21.141Z,17.93
2019-02-04T08:20:50.040Z,18.20
2019-02-04T08:23:22.260Z,18.27
2019-02-04T08:25:51.112Z,18.50
2019-02-04T08:28:22.807Z,18.77
2019-02-04T08:30:52.983Z,18.53
2019-02-04T08:33:23.530Z,20.40
2019-02-04T08:36:06.864Z,18.57
2019-02-04T08:38:35.754Z,19.30
2019-02-04T08:41:06.919Z,18.57
2019-02-04T08:43:38.509Z,17.63
2019-02-04T08:48:43.555Z,19.47
2019-02-04T08:51:16.869Z,16.97
2019-02-04T08:53:50.130Z,17.23
2019-02-04T08:56:20.555Z,16.73
2019-02-04T08:58:49.400Z,16.00
2019-02-04T09:01:19.286Z,16.47
2019-02-04T09:03:56.936Z,17.43
2019-02-04T09:06:29.364Z,17.10
2019-02-04T09:09:05.021Z,21.33
2019-02-04T09:11:40.894Z,17.80
2019-02-04T09:14:14.982Z,16.90
2019-02-04T09:16:46.246Z,16.13
2019-02-04T09:19:21.422Z,16.07
2019-02-04T09:21:50.650Z,15.83
2019-02-04T09:24:33.953Z,15.23
2019-02-04T09:30:00.635Z,15.87
2019-02-04T09:32:32.162Z,17.67
2019-02-04T09:35:02.948Z,16.43
2019-02-04T09:37:33.354Z,17.27
2019-02-04T09:40:03.813Z,14.70
2019-02-04T09:42:32.628Z,16.07
2019-02-04T09:45:17.017Z,18.10
2019-02-04T09:47:47.995Z,15.07
2019-02-04T09:50:24.232Z,19.73
2019-02-04T09:52:58.680Z,16.37
2019-02-04T09:55:32.592Z,17.57
2019-02-04T09:58:04.616Z,17.07
2019-02-04T10:00:36.849Z,18.17
2019-02-04T10:03:06.941Z,17.93
2019-02-04T10:05:41.660Z,16.07
2019-02-04T10:08:15.228Z,15.80
2019-02-04T10:10:50.198Z,15.60
2019-02-04T10:13:23.506Z,15.20
2019-02-04T10:16:11.710Z,15.43
2019-02-04T10:18:40.763Z,15.63
2019-02-04T10:21:18.621Z,15.40
2019-02-04T10:23:49.124Z,15.83
2019-02-04T10:26:48.214Z,15.30
2019-02-04T10:29:36.827Z,16.53
2019-02-04T10:34:59.819Z,18.27
2019-02-04T10:37:30.399Z,16.30
2019-02-04T10:46:08.163Z,14.70
2019-02-04T10:48:38.639Z,14.90
2019-02-04T10:51:12.344Z,14.80
2019-02-04T10:53:44.393Z,14.10
2019-02-04T10:56:16.316Z,13.83
2019-02-04T10:58:46.094Z,14.63
2019-02-04T11:01:16.823Z,13.70
2019-02-04T11:03:48.701Z,11.43
2019-02-04T11:06:19.512Z,12.67
2019-02-04T11:08:53.126Z,13.73
2019-02-04T11:11:24.078Z,14.03
2019-02-04T11:13:55.036Z,13.93
2019-02-04T11:16:35.430Z,14.07
2019-02-04T11:19:04.917Z,13.57
2019-02-04T11:21:39.845Z,16.00
2019-02-04T11:24:08.718Z,13.83
2019-02-04T11:27:04.401Z,13.67
2019-02-04T11:29:58.416Z,13.53
2019-02-04T11:32:41.650Z,15.30
2019-02-04T11:35:09.004Z,15.97
2019-02-04T11:37:43.012Z,19.33
2019-02-04T11:40:27.044Z,14.23
2019-02-04T11:43:02.920Z,15.20
2019-02-04T11:45:32.509Z,15.50
2019-02-04T11:48:03.863Z,16.00
2019-02-04T11:50:32.875Z,14.63
2019-02-04T11:53:04.176Z,13.83
2019-02-04T11:55:33.041Z,13.83
2019-02-04T11:58:01.954Z,13.67
2019-02-04T12:00:36.920Z,12.97
2019-02-04T12:03:08.285Z,13.57
2019-02-04T12:05:37.192Z,11.97
2019-02-04T12:08:11.808Z,12.33
2019-02-04T12:10:50.014Z,12.53
2019-02-04T12:13:18.944Z,12.50
2019-02-04T12:15:50.211Z,12.03
2019-02-04T12:18:19.103Z,13.07
2019-02-04T12:20:50.941Z,11.80
2019-02-04T12:23:20.532Z,13.17
2019-02-04T12:25:49.376Z,12.60
2019-02-04T12:28:18.436Z,12.10
2019-02-04T12:30:48.384Z,12.27
2019-02-04T12:33:17.248Z,12.33
2019-02-04T12:35:46.131Z,12.97
2019-02-04T12:38:15.280Z,12.10
2019-02-04T12:40:44.264Z,12.80
2019-02-04T12:43:13.112Z,11.30
2019-02-04T12:45:43.858Z,12.10
2019-02-04T12:48:12.696Z,11.60
2019-02-04T12:50:41.707Z,12.17
2019-02-04T12:53:11.048Z,12.13
2019-02-04T12:55:39.925Z,12.77
2019-02-04T12:58:08.996Z,11.60
2019-02-04T13:00:38.365Z,12.07
2019-02-04T13:03:07.221Z,12.10
2019-02-04T13:05:41.178Z,13.10
2019-02-04T13:08:13.882Z,11.87
2019-02-04T13:10:42.728Z,13.27
2019-02-04T13:13:17.036Z,12.87
2019-02-04T13:15:45.939Z,13.13
2019-02-04T13:18:14.824Z,14.15
2019-02-04T13:20:44.178Z,13.80
2019-02-04T13:23:16.483Z,13.60
2019-02-04T13:25:45.309Z,14.20
2019-02-04T13:28:15.685Z,13.57
2019-02-04T13:30:44.540Z,14.87
2019-02-04T13:33:13.422Z,14.63
2019-02-04T13:35:44.226Z,14.27
2019-02-04T13:38:15.101Z,13.53
2019-02-04T13:40:44.682Z,14.93
2019-02-04T13:43:13.856Z,14.70
2019-02-04T13:45:42.732Z,14.93
2019-02-04T13:48:12.778Z,15.60
2019-02-04T13:50:41.785Z,16.53
2019-02-04T13:53:10.725Z,16.53
2019-02-04T13:55:43.563Z,17.57
2019-02-04T13:58:12.496Z,16.30
2019-02-04T14:00:41.472Z,15.60
2019-02-04T14:03:11.149Z,16.50
2019-02-04T14:05:40.039Z,16.17
2019-02-04T14:08:08.908Z,16.10
2019-02-04T14:10:45.973Z,20.70
2019-02-04T14:13:13.340Z,18.60
2019-02-04T14:15:42.908Z,18.53
2019-02-04T14:18:11.750Z,18.87
2019-02-04T14:20:40.630Z,17.87
2019-02-04T14:23:09.503Z,18.70
2019-02-04T14:25:38.335Z,17.03
2019-02-04T14:28:07.671Z,18.30
2019-02-04T14:30:38.703Z,17.23
2019-02-04T14:33:07.630Z,17.75
2019-02-04T14:35:37.326Z,18.33
2019-02-04T14:38:08.754Z,17.70
2019-02-04T14:40:37.654Z,17.40
2019-02-04T14:43:22.132Z,18.20
2019-02-04T14:46:02.786Z,18.13
2019-02-04T14:48:59.966Z,19.80
2019-02-04T14:51:55.885Z,19.53
2019-02-04T14:54:45.692Z,20.97
2019-02-04T14:57:33.797Z,20.80
2019-02-04T15:00:17.922Z,20.73
2019-02-04T15:02:58.588Z,21.40
2019-02-04T15:05:36.518Z,21.30
2019-02-04T15:08:32.957Z,22.70
2019-02-04T15:11:04.430Z,24.50
2019-02-04T15:13:58.881Z,24.20
2019-02-04T15:16:39.559Z,24.53
2019-02-04T15:19:11.457Z,27.77
2019-02-04T15:22:01.784Z,22.83
2019-02-04T15:24:42.474Z,21.50
2019-02-04T15:27:25.891Z,21.87
2019-02-04T15:30:00.374Z,26.90
2019-02-04T15:32:47.218Z,23.80
2019-02-04T15:35:21.785Z,22.20
2019-02-04T15:38:10.744Z,21.43
2019-02-04T15:41:04.212Z,31.70
2019-02-04T15:43:45.472Z,22.33
2019-02-04T15:46:23.316Z,21.60
2019-02-04T15:49:17.279Z,25.33
2019-02-04T15:51:49.113Z,31.00
2019-02-04T15:54:19.622Z,25.13
2019-02-04T15:56:48.557Z,24.70
2019-02-04T15:59:17.440Z,25.77
2019-02-04T16:01:46.634Z,27.23
2019-02-04T16:04:33.938Z,28.23
2019-02-04T16:07:03.651Z,29.17
2019-02-04T16:09:32.663Z,30.27
2019-02-04T16:12:01.548Z,25.27
2019-02-04T16:14:31.071Z,31.47
2019-02-04T16:16:59.883Z,30.83
2019-02-04T16:19:28.873Z,26.33
2019-02-04T16:21:57.793Z,29.87
2019-02-04T16:24:26.766Z,31.03
2019-02-04T16:26:55.688Z,31.87
2019-02-04T16:29:24.563Z,32.03
2019-02-04T16:31:53.477Z,32.70
2019-02-04T16:34:24.144Z,31.90
2019-02-04T16:36:53.150Z,34.67
2019-02-04T16:39:22.031Z,31.07
2019-02-04T16:41:51.003Z,32.77
2019-02-04T16:44:19.959Z,34.70
2019-02-04T16:46:49.311Z,30.63
2019-02-04T16:49:18.197Z,32.97
2019-02-04T16:51:48.588Z,33.67
2019-02-04T16:54:17.773Z,35.77
2019-02-04T16:56:46.798Z,34.73
2019-02-04T16:59:15.612Z,35.10
2019-02-04T17:01:46.363Z,33.90
2019-02-04T17:04:18.392Z,35.63
2019-02-04T17:06:47.530Z,34.57
2019-02-04T17:09:27.074Z,37.97
2019-02-04T17:11:56.536Z,76.93
2019-02-04T17:14:25.430Z,42.30
2019-02-04T17:16:58.574Z,42.70
2019-02-04T17:19:29.156Z,86.23
2019-02-04T17:21:58.467Z,39.27
2019-02-04T17:27:20.422Z,48.20
2019-02-04T17:29:49.397Z,38.00
2019-02-04T17:32:20.141Z,69.47
2019-02-04T17:34:49.684Z,43.60
2019-02-04T17:37:20.115Z,39.37
2019-02-04T17:39:48.964Z,36.93
2019-02-04T17:42:21.668Z,35.50
2019-02-04T17:44:58.716Z,37.67
2019-02-04T17:47:25.200Z,34.93
2019-02-04T17:49:54.158Z,34.57
2019-02-04T17:52:23.080Z,35.73
2019-02-04T17:54:51.949Z,37.30
2019-02-04T17:57:20.957Z,37.97
2019-02-04T17:59:49.884Z,42.13
2019-02-04T18:02:20.498Z,57.08
2019-02-04T18:04:53.106Z,49.63
2019-02-04T18:07:26.101Z,45.03
2019-02-04T18:09:55.039Z,48.40
2019-02-04T18:12:25.262Z,43.73
2019-02-04T18:15:00.263Z,42.60
2019-02-04T18:17:31.692Z,42.57
2019-02-04T18:20:00.995Z,40.80
2019-02-04T18:22:34.093Z,40.43
2019-02-04T18:25:06.250Z,38.30
2019-02-04T18:27:46.453Z,49.30
2019-02-04T18:30:35.913Z,37.50
2019-02-04T18:33:06.562Z,32.80
2019-02-04T18:35:37.565Z,31.20
2019-02-04T18:38:06.637Z,32.33
2019-02-04T18:40:35.748Z,32.77
2019-02-04T18:43:07.487Z,34.80
2019-02-04T18:45:38.994Z,32.83
2019-02-04T18:48:07.393Z,31.80
2019-02-04T18:50:38.505Z,31.07
2019-02-04T18:53:07.451Z,31.53
2019-02-04T18:55:53.416Z,31.27
2019-02-04T18:58:28.202Z,30.77
2019-02-04T19:00:57.121Z,28.30
2019-02-04T19:03:27.749Z,29.90
2019-02-04T19:05:56.638Z,30.17
2019-02-04T19:08:28.272Z,38.15
2019-02-04T19:10:59.132Z,32.67
2019-02-04T19:13:36.061Z,30.70
2019-02-04T19:16:03.015Z,30.70
2019-02-04T19:18:33.062Z,29.67
2019-02-04T19:21:04.834Z,31.50
2019-02-04T19:23:36.373Z,30.30
2019-02-04T19:26:07.814Z,31.30
2019-02-04T19:28:36.695Z,31.20
2019-02-04T19:31:08.879Z,32.33
2019-02-04T19:33:42.080Z,39.33
2019-02-04T19:36:21.983Z,38.53
2019-02-04T19:38:53.698Z,39.43
2019-02-04T19:41:30.943Z,46.83
2019-02-04T19:44:02.475Z,46.13
2019-02-04T19:46:33.239Z,39.90
2019-02-04T19:49:01.905Z,49.17
2019-02-04T19:51:31.024Z,47.47
2019-02-04T19:53:59.864Z,35.70
2019-02-04T19:56:28.750Z,33.20
2019-02-04T19:58:57.624Z,37.67
2019-02-04T20:01:27.532Z,34.10
2019-02-04T20:03:56.860Z,35.60
2019-02-04T20:06:27.912Z,35.20
2019-02-04T20:08:56.674Z,34.23
2019-02-04T20:11:25.766Z,39.03
2019-02-04T20:13:54.628Z,36.37
2019-02-04T20:16:23.476Z,36.80
2019-02-04T20:18:52.771Z,40.40
2019-02-04T20:21:21.698Z,34.93
2019-02-04T20:23:50.628Z,34.20
2019-02-04T20:26:21.024Z,35.20
2019-02-04T20:28:50.281Z,36.77
2019-02-04T20:31:19.099Z,32.57
2019-02-04T20:33:55.211Z,31.90
2019-02-04T20:36:23.514Z,31.23
2019-02-04T20:38:52.424Z,34.40
2019-02-04T20:41:21.563Z,36.17
2019-02-04T20:43:50.569Z,34.17
2019-02-04T20:46:19.445Z,33.43
2019-02-04T20:48:48.574Z,44.47
2019-02-04T20:51:17.497Z,38.40
2019-02-04T20:53:46.358Z,36.00
2019-02-04T20:56:15.275Z,36.53
2019-02-04T20:58:45.655Z,39.17
2019-02-04T21:01:16.029Z,46.50
2019-02-04T21:03:49.011Z,43.93
2019-02-04T21:06:16.839Z,44.33
2019-02-04T21:08:47.358Z,45.17
2019-02-04T21:11:16.193Z,45.17
2019-02-04T21:13:45.182Z,45.17
2019-02-04T21:16:14.834Z,44.97
2019-02-04T21:18:43.775Z,47.03
2019-02-04T21:21:12.670Z,45.93
2019-02-04T21:23:41.542Z,48.60
2019-02-04T21:26:12.266Z,52.57
2019-02-04T21:28:41.223Z,46.07
2019-02-04T21:31:11.367Z,46.73
2019-02-04T21:33:42.280Z,47.67
2019-02-04T21:36:11.273Z,50.27
2019-02-04T21:38:40.144Z,49.33
2019-02-04T21:41:09.057Z,51.17
2019-02-04T21:43:43.441Z,61.40
2019-02-04T21:46:15.336Z,70.63
2019-02-04T21:48:44.225Z,80.77
2019-02-04T21:51:13.151Z,63.57
2019-02-04T21:53:43.939Z,58.50
2019-02-04T21:56:17.613Z,53.80
2019-02-04T21:58:46.460Z,50.35
2019-02-04T22:01:15.281Z,60.63
2019-02-04T22:03:44.224Z,55.53
2019-02-04T22:06:13.097Z,48.90
2019-02-04T22:08:41.940Z,47.83
2019-02-04T22:11:10.865Z,48.40
2019-02-04T22:13:39.743Z,45.13
2019-02-04T22:16:08.571Z,40.73
2019-02-04T22:18:37.637Z,55.13
2019-02-04T22:21:06.531Z,40.77
2019-02-04T22:23:35.404Z,39.47
2019-02-04T22:26:04.295Z,40.13
2019-02-04T22:28:33.118Z,39.17
2019-02-04T22:31:02.465Z,42.00
2019-02-04T22:33:31.346Z,40.23
2019-02-04T22:36:00.224Z,46.83
2019-02-04T22:38:29.084Z,46.10
2019-02-04T22:40:58.008Z,47.03
2019-02-04T22:43:26.846Z,46.20
2019-02-04T22:45:55.710Z,45.67
2019-02-04T22:48:25.050Z,45.57
2019-02-04T22:50:56.590Z,42.93
2019-02-04T22:53:26.971Z,48.20
2019-02-04T22:55:55.896Z,43.70
2019-02-04T22:58:25.796Z,40.37
2019-02-04T23:00:57.559Z,36.27
2019-02-04T23:03:28.654Z,33.37
2019-02-04T23:05:57.539Z,32.37
2019-02-04T23:08:26.337Z,34.60
2019-02-04T23:10:55.324Z,29.83
2019-02-04T23:13:24.162Z,47.57
2019-02-04T23:15:54.153Z,42.73
2019-02-04T23:18:23.412Z,31.53
2019-02-04T23:20:52.288Z,27.63
2019-02-04T23:23:19.888Z,27.80
2019-02-04T23:25:48.836Z,28.23
2019-02-04T23:28:17.708Z,28.60
2019-02-04T23:30:46.963Z,35.03
2019-02-04T23:33:15.888Z,35.07
2019-02-04T23:35:44.709Z,37.40
2019-02-04T23:38:13.596Z,38.73
2019-02-04T23:40:42.488Z,40.33
2019-02-04T23:43:11.546Z,36.73
2019-02-04T23:45:41.011Z,35.30
2019-02-04T23:48:09.872Z,32.73
2019-02-04T23:50:38.724Z,29.80
2019-02-04T23:53:07.691Z,29.50
2019-02-04T23:55:54.127Z,27.20
2019-02-04T23:58:13.223Z,44.48
